createdAt,value
2023-01-22T00:01:08.747Z,102728.97
2023-01-22T00:03:37.108Z,102717.03
2023-01-22T00:06:04.833Z,102704.66
2023-01-22T00:08:32.195Z,102723.44
2023-01-22T00:10:59.072Z,102701.03
2023-01-22T00:13:27.613Z,102707.59
2023-01-22T00:15:57.240Z,102718.47
2023-01-22T00:18:24.273Z,102716.69
2023-01-22T00:20:53.747Z,102716.06
2023-01-22T00:23:21.241Z,102724.72
2023-01-22T00:25:48.135Z,102719.72
2023-01-22T00:28:16.807Z,102718.22
2023-01-22T00:30:44.018Z,102721.94
2023-01-22T00:33:11.348Z,102702.28
2023-01-22T00:35:38.373Z,102714.19
2023-01-22T00:38:06.350Z,102712.34
2023-01-22T00:40:33.330Z,102720.19
2023-01-22T00:43:00.221Z,102715.13
2023-01-22T00:45:27.142Z,102713.50
2023-01-22T00:47:54.059Z,102730.84
2023-01-22T00:50:21.009Z,102728.09
2023-01-22T00:52:47.912Z,102737.56
2023-01-22T00:55:14.828Z,102729.34
2023-01-22T00:57:41.739Z,102730.06
2023-01-22T01:00:10.049Z,102726.38
2023-01-22T01:03:00.139Z,102725.31
2023-01-22T01:05:27.097Z,102723.44
2023-01-22T01:07:53.982Z,102726.03
2023-01-22T01:10:21.041Z,102729.59
2023-01-22T01:12:47.975Z,102732.19
2023-01-22T01:15:14.870Z,102709.91
2023-01-22T01:17:41.803Z,102719.34
2023-01-22T01:20:09.849Z,102724.00
2023-01-22T01:22:36.757Z,102725.94
2023-01-22T01:25:05.034Z,102729.63
2023-01-22T01:27:32.484Z,102726.16
2023-01-22T01:29:59.768Z,102734.09
2023-01-22T01:32:26.731Z,102735.06
2023-01-22T01:34:53.819Z,102725.78
2023-01-22T01:37:20.755Z,102726.69
2023-01-22T01:39:51.807Z,102718.66
2023-01-22T01:42:31.813Z,102716.88
2023-01-22T01:45:28.720Z,102723.09
2023-01-22T01:48:24.727Z,102732.56
2023-01-22T01:51:20.312Z,102731.41
2023-01-22T01:53:50.115Z,102718.41
2023-01-22T01:56:26.973Z,102728.75
2023-01-22T01:58:59.336Z,102718.31
2023-01-22T02:01:27.879Z,102715.63
2023-01-22T02:03:55.550Z,102726.38
2023-01-22T02:06:22.482Z,102723.91
2023-01-22T02:08:51.511Z,102721.59
2023-01-22T02:11:19.601Z,102728.38
2023-01-22T02:13:55.681Z,102719.13
2023-01-22T02:16:22.688Z,102728.09
2023-01-22T02:18:50.063Z,102721.50
2023-01-22T02:21:38.123Z,102713.69
2023-01-22T02:24:09.317Z,102713.88
2023-01-22T02:26:38.379Z,102718.16
2023-01-22T02:29:08.005Z,102717.44
2023-01-22T02:31:37.512Z,102724.97
2023-01-22T02:34:06.629Z,102712.88
2023-01-22T02:36:37.227Z,102713.88
2023-01-22T02:39:04.432Z,102711.56
2023-01-22T02:41:32.789Z,102708.00
2023-01-22T02:44:00.405Z,102706.66
2023-01-22T02:46:27.439Z,102709.41
2023-01-22T02:48:54.436Z,102703.53
2023-01-22T02:51:22.207Z,102713.06
2023-01-22T02:53:50.264Z,102709.59
2023-01-22T02:56:17.815Z,102703.69
2023-01-22T02:58:45.464Z,102720.09
2023-01-22T03:01:24.591Z,102716.78
2023-01-22T03:04:12.888Z,102714.41
2023-01-22T03:06:46.427Z,102719.03
2023-01-22T03:09:17.077Z,102719.03
2023-01-22T03:11:46.507Z,102715.75
2023-01-22T03:14:38.262Z,102707.16
2023-01-22T03:17:25.904Z,102711.84
2023-01-22T03:20:12.080Z,102709.31
2023-01-22T03:22:38.991Z,102717.88
2023-01-22T03:25:06.351Z,102712.88
2023-01-22T03:27:33.490Z,102730.44
2023-01-22T03:30:00.511Z,102727.94
2023-01-22T03:32:32.678Z,102715.09
2023-01-22T03:34:59.781Z,102728.50
2023-01-22T03:37:32.662Z,102718.88
2023-01-22T03:40:00.386Z,102717.25
2023-01-22T03:42:35.152Z,102711.72
2023-01-22T03:45:02.074Z,102721.34
2023-01-22T03:47:29.137Z,102727.41
2023-01-22T03:49:56.024Z,102718.94
2023-01-22T03:52:23.050Z,102719.91
2023-01-22T03:54:49.982Z,102715.81
2023-01-22T03:57:17.600Z,102737.41
2023-01-22T03:59:44.806Z,102746.03
2023-01-22T04:02:12.353Z,102737.28
2023-01-22T04:04:52.370Z,102752.78
2023-01-22T04:07:19.471Z,102736.31
2023-01-22T04:09:47.529Z,102754.41
2023-01-22T04:12:14.528Z,102741.47
2023-01-22T04:14:42.638Z,102754.50
2023-01-22T04:17:09.756Z,102746.03
2023-01-22T04:19:47.672Z,102757.41
2023-01-22T04:22:32.994Z,102750.56
2023-01-22T04:25:00.732Z,102761.81
2023-01-22T04:27:27.610Z,102763.47
2023-01-22T04:29:55.833Z,102766.69
2023-01-22T04:32:24.271Z,102765.88
2023-01-22T04:35:12.840Z,102770.88
2023-01-22T04:37:50.141Z,102773.28
2023-01-22T04:40:18.012Z,102770.44
2023-01-22T04:42:46.392Z,102775.44
2023-01-22T04:45:13.729Z,102772.75
2023-01-22T04:47:44.149Z,102771.03
2023-01-22T04:50:18.639Z,102777.91
2023-01-22T04:52:46.683Z,102787.25
2023-01-22T04:55:14.007Z,102772.13
2023-01-22T04:57:50.210Z,102787.88
2023-01-22T05:00:18.659Z,102794.72
2023-01-22T05:02:45.995Z,102788.66
2023-01-22T05:05:13.112Z,102787.88
2023-01-22T05:07:40.028Z,102781.03
2023-01-22T05:10:08.659Z,102790.53
2023-01-22T05:12:35.827Z,102792.25
2023-01-22T05:15:05.507Z,102794.72
2023-01-22T05:17:35.224Z,102787.69
2023-01-22T05:20:02.778Z,102790.25
2023-01-22T05:22:29.731Z,102791.88
2023-01-22T05:24:58.657Z,102791.59
2023-01-22T05:27:26.622Z,102793.09
2023-01-22T05:30:01.226Z,102790.22
2023-01-22T05:32:39.225Z,102789.88
2023-01-22T05:35:07.368Z,102794.22
2023-01-22T05:37:38.203Z,102799.50
2023-01-22T05:40:06.849Z,102797.50
2023-01-22T05:42:35.655Z,102801.97
2023-01-22T05:45:04.974Z,102801.09
2023-01-22T05:47:35.215Z,102795.84
2023-01-22T05:50:28.553Z,102809.94
2023-01-22T05:53:03.273Z,102809.22
2023-01-22T05:55:30.379Z,102812.81
2023-01-22T05:57:57.260Z,102816.16
2023-01-22T06:00:24.913Z,102817.84
2023-01-22T06:02:59.835Z,102838.81
2023-01-22T06:05:28.859Z,102830.25
2023-01-22T06:08:03.812Z,102828.47
2023-01-22T06:10:39.064Z,102821.63
2023-01-22T06:13:06.004Z,102820.63
2023-01-22T06:15:33.500Z,102829.19
2023-01-22T06:18:13.119Z,102824.72
2023-01-22T06:20:40.027Z,102834.13
2023-01-22T06:23:08.472Z,102825.50
2023-01-22T06:25:35.463Z,102828.09
2023-01-22T06:28:11.242Z,102835.06
2023-01-22T06:30:39.785Z,102823.72
2023-01-22T06:33:06.884Z,102843.09
2023-01-22T06:35:33.802Z,102844.69
2023-01-22T06:38:00.959Z,102840.00
2023-01-22T06:40:31.929Z,102841.00
2023-01-22T06:43:02.633Z,102832.19
2023-01-22T06:45:30.155Z,102835.47
2023-01-22T06:48:02.773Z,102838.53
2023-01-22T06:50:29.660Z,102834.94
2023-01-22T06:52:56.522Z,102854.00
2023-01-22T06:55:23.406Z,102851.31
2023-01-22T06:57:50.395Z,102861.75
2023-01-22T07:00:18.345Z,102866.81
2023-01-22T07:02:45.466Z,102860.75
2023-01-22T07:05:12.437Z,102870.91
2023-01-22T07:07:39.315Z,102869.22
2023-01-22T07:10:06.637Z,102881.31
2023-01-22T07:12:33.872Z,102880.34
2023-01-22T07:15:00.773Z,102889.88
2023-01-22T07:17:27.677Z,102890.16
2023-01-22T07:19:54.549Z,102893.75
2023-01-22T07:22:21.439Z,102894.63
2023-01-22T07:24:48.330Z,102898.28
2023-01-22T07:27:15.218Z,102900.09
2023-01-22T07:29:42.099Z,102905.31
2023-01-22T07:32:08.984Z,102900.69
2023-01-22T07:34:37.379Z,102908.81
2023-01-22T07:37:04.466Z,102914.16
2023-01-22T07:39:31.354Z,102918.72
2023-01-22T07:42:01.170Z,102920.50
2023-01-22T07:44:30.672Z,102923.00
2023-01-22T07:46:57.716Z,102927.28
2023-01-22T07:49:24.603Z,102935.81
2023-01-22T07:51:51.496Z,102922.69
2023-01-22T07:54:20.036Z,102931.03
2023-01-22T07:56:46.978Z,102940.53
2023-01-22T07:59:13.871Z,102932.72
2023-01-22T08:01:40.824Z,102934.13
2023-01-22T08:04:07.746Z,102942.66
2023-01-22T08:06:34.660Z,102945.16
2023-01-22T08:09:01.613Z,102948.75
2023-01-22T08:11:28.982Z,102942.94
2023-01-22T08:13:55.859Z,102945.34
2023-01-22T08:16:22.805Z,102946.06
2023-01-22T08:18:49.692Z,102948.63
2023-01-22T08:21:16.563Z,102945.94
2023-01-22T08:23:46.650Z,102952.03
2023-01-22T08:26:15.111Z,102952.22
2023-01-22T08:28:41.991Z,102954.97
2023-01-22T08:31:16.470Z,102953.28
2023-01-22T08:33:49.774Z,102959.25
2023-01-22T08:36:16.665Z,102961.53
2023-01-22T08:38:43.548Z,102956.97
2023-01-22T08:41:10.449Z,102954.22
2023-01-22T08:43:37.336Z,102957.41
2023-01-22T08:46:04.335Z,102948.84
2023-01-22T08:48:31.220Z,102947.97
2023-01-22T08:51:00.903Z,102959.47
2023-01-22T08:53:28.392Z,102949.16
2023-01-22T08:55:55.303Z,102957.97
2023-01-22T08:58:24.257Z,102959.66
2023-01-22T09:00:51.595Z,102952.03
2023-01-22T09:03:18.494Z,102956.56
2023-01-22T09:05:45.446Z,102954.09
2023-01-22T09:08:12.486Z,102953.97
2023-01-22T09:10:40.032Z,102972.00
2023-01-22T09:13:06.900Z,102961.66
2023-01-22T09:15:33.788Z,102969.31
2023-01-22T09:18:00.691Z,102968.41
2023-01-22T09:20:27.901Z,102974.47
2023-01-22T09:22:54.778Z,102983.22
2023-01-22T09:25:21.950Z,102979.03
2023-01-22T09:27:48.844Z,102983.69
2023-01-22T09:30:16.438Z,102972.75
2023-01-22T09:32:43.488Z,102977.41
2023-01-22T09:35:10.561Z,102980.00
2023-01-22T09:37:37.500Z,102987.75
2023-01-22T09:40:04.848Z,102987.75
2023-01-22T09:42:37.194Z,102984.16
2023-01-22T09:45:12.322Z,102979.81
2023-01-22T09:47:51.382Z,102991.41
2023-01-22T09:50:25.604Z,102992.91
2023-01-22T09:52:55.213Z,102981.75
2023-01-22T09:55:30.755Z,102997.75
2023-01-22T09:58:01.890Z,102998.38
2023-01-22T10:00:54.484Z,103002.53
2023-01-22T10:03:38.457Z,103010.09
2023-01-22T10:06:18.789Z,103004.84
2023-01-22T10:09:07.936Z,103003.06
2023-01-22T10:11:36.608Z,103002.44
2023-01-22T10:14:09.520Z,103000.84
2023-01-22T10:16:37.547Z,103007.91
2023-01-22T10:19:19.889Z,103013.06
2023-01-22T10:21:52.449Z,103008.06
2023-01-22T10:24:19.350Z,103010.25
2023-01-22T10:26:54.839Z,103009.34
2023-01-22T10:29:33.581Z,103013.72
2023-01-22T10:32:22.155Z,103014.59
2023-01-22T10:35:19.992Z,103005.38
2023-01-22T10:37:55.879Z,102995.22
2023-01-22T10:40:38.187Z,103006.03
2023-01-22T10:43:14.354Z,103002.66
2023-01-22T10:45:59.663Z,102997.47
2023-01-22T10:48:26.930Z,103000.97
2023-01-22T10:51:15.755Z,102998.53
2023-01-22T10:53:53.651Z,102989.97
2023-01-22T10:56:31.646Z,102997.03
2023-01-22T10:59:02.958Z,103001.06
2023-01-22T11:01:36.919Z,103002.06
2023-01-22T11:04:25.909Z,103003.75
2023-01-22T11:07:30.988Z,102996.72
2023-01-22T11:10:21.613Z,103008.94
2023-01-22T11:12:57.060Z,103008.94
2023-01-22T11:15:44.717Z,103007.88
2023-01-22T11:18:40.875Z,103002.41
2023-01-22T11:21:22.771Z,103008.47
2023-01-22T11:24:12.025Z,103002.19
2023-01-22T11:27:14.579Z,102994.44
2023-01-22T11:29:57.065Z,103000.72
2023-01-22T11:32:59.265Z,103005.19
2023-01-22T11:35:52.351Z,102994.03
2023-01-22T11:38:40.678Z,103005.47
2023-01-22T11:41:40.676Z,103004.56
2023-01-22T11:44:49.097Z,103002.78
2023-01-22T11:47:57.651Z,102996.59
2023-01-22T11:50:46.995Z,102997.41
2023-01-22T11:53:40.445Z,102994.84
2023-01-22T11:56:29.123Z,103003.66
2023-01-22T11:59:06.773Z,102996.88
2023-01-22T12:02:14.188Z,102997.59
2023-01-22T12:05:14.346Z,102997.59
2023-01-22T12:08:05.614Z,102994.22
2023-01-22T12:11:05.929Z,103001.47
2023-01-22T12:14:10.622Z,102998.38
2023-01-22T12:17:25.415Z,102996.13
2023-01-22T12:20:08.280Z,102986.59
2023-01-22T12:22:46.361Z,102993.75
2023-01-22T12:25:52.745Z,103001.41
2023-01-22T12:28:36.186Z,102991.78
2023-01-22T12:31:12.783Z,102999.53
2023-01-22T12:33:42.199Z,102995.47
2023-01-22T12:36:16.498Z,103001.78
2023-01-22T12:39:14.377Z,102986.78
2023-01-22T12:41:52.605Z,102995.97
2023-01-22T12:44:38.074Z,103001.88
2023-01-22T12:47:19.616Z,103000.81
2023-01-22T12:49:53.028Z,103005.09
2023-01-22T12:52:39.523Z,103005.28
2023-01-22T12:55:31.572Z,102998.28
2023-01-22T12:57:58.784Z,102998.94
2023-01-22T13:00:43.521Z,103000.41
2023-01-22T13:03:32.141Z,102997.06
2023-01-22T13:06:02.724Z,102991.59
2023-01-22T13:08:44.952Z,102996.78
2023-01-22T13:11:35.445Z,102998.47
2023-01-22T13:14:28.475Z,102999.44
2023-01-22T13:17:00.508Z,103007.56
2023-01-22T13:19:35.855Z,103005.09
2023-01-22T13:22:03.586Z,103008.63
2023-01-22T13:24:30.468Z,103001.78
2023-01-22T13:27:01.069Z,103010.44
2023-01-22T13:29:37.378Z,103004.09
2023-01-22T13:32:16.354Z,103008.28
2023-01-22T13:34:43.307Z,103010.06
2023-01-22T13:37:25.342Z,103002.03
2023-01-22T13:39:52.437Z,103008.41
2023-01-22T13:42:19.423Z,103014.53
2023-01-22T13:44:51.633Z,103011.06
2023-01-22T13:47:32.913Z,103000.97
2023-01-22T13:50:00.164Z,103020.22
2023-01-22T13:52:28.564Z,103023.28
2023-01-22T13:55:05.312Z,103028.28
2023-01-22T13:57:32.193Z,103029.88
2023-01-22T14:00:01.465Z,103020.63
2023-01-22T14:02:37.357Z,103033.00
2023-01-22T14:05:04.733Z,103033.28
2023-01-22T14:07:37.956Z,103028.19
2023-01-22T14:10:19.923Z,103025.72
2023-01-22T14:12:58.163Z,103024.13
2023-01-22T14:15:25.041Z,103027.41
2023-01-22T14:17:51.949Z,103023.84
2023-01-22T14:20:19.435Z,103027.19
2023-01-22T14:22:47.473Z,103028.03
2023-01-22T14:25:14.386Z,103031.41
2023-01-22T14:27:48.427Z,103032.31
2023-01-22T14:30:19.256Z,103034.97
2023-01-22T14:32:46.513Z,103039.19
2023-01-22T14:35:23.388Z,103037.19
2023-01-22T14:37:52.224Z,103033.63
2023-01-22T14:40:22.063Z,103051.91
2023-01-22T14:42:49.625Z,103031.03
2023-01-22T14:45:18.851Z,103043.09
2023-01-22T14:47:51.516Z,103037.72
2023-01-22T14:50:19.308Z,103049.56
2023-01-22T14:52:47.553Z,103051.09
2023-01-22T14:55:14.747Z,103052.56
2023-01-22T14:57:41.632Z,103050.78
2023-01-22T15:00:11.039Z,103050.91
2023-01-22T15:02:39.877Z,103056.09
2023-01-22T15:05:07.724Z,103056.66
2023-01-22T15:07:35.478Z,103061.72
2023-01-22T15:10:04.147Z,103056.19
2023-01-22T15:12:31.079Z,103045.94
2023-01-22T15:14:58.264Z,103033.22
2023-01-22T15:17:25.222Z,103057.00
2023-01-22T15:19:52.090Z,103063.75
2023-01-22T15:22:18.981Z,103058.59
2023-01-22T15:24:45.873Z,103063.84
2023-01-22T15:27:18.315Z,103061.97
2023-01-22T15:29:46.351Z,103055.59
2023-01-22T15:32:13.671Z,103059.53
2023-01-22T15:34:40.764Z,103057.72
2023-01-22T15:37:08.137Z,103066.28
2023-01-22T15:39:35.176Z,103068.88
2023-01-22T15:42:02.086Z,103071.66
2023-01-22T15:44:28.996Z,103070.81
2023-01-22T15:46:58.752Z,103072.44
2023-01-22T15:49:25.663Z,103073.16
2023-01-22T15:51:52.911Z,103067.69
2023-01-22T15:54:19.832Z,103081.88
2023-01-22T15:56:46.775Z,103080.38
2023-01-22T15:59:13.759Z,103077.00
2023-01-22T16:01:40.842Z,103084.94
2023-01-22T16:04:08.524Z,103085.75
2023-01-22T16:06:36.007Z,103073.34
2023-01-22T16:09:06.027Z,103084.03
2023-01-22T16:11:33.568Z,103088.22
2023-01-22T16:14:01.129Z,103094.09
2023-01-22T16:16:34.838Z,103088.94
2023-01-22T16:19:05.969Z,103084.69
2023-01-22T16:21:33.428Z,103087.34
2023-01-22T16:24:02.077Z,103096.91
2023-01-22T16:26:34.822Z,103093.13
2023-01-22T16:29:04.716Z,103102.38
2023-01-22T16:31:35.048Z,103098.72
2023-01-22T16:34:10.883Z,103105.47
2023-01-22T16:36:38.464Z,103102.69
2023-01-22T16:39:06.277Z,103108.75
2023-01-22T16:41:36.542Z,103118.41
2023-01-22T16:44:17.063Z,103115.69
2023-01-22T16:46:49.753Z,103120.28
2023-01-22T16:49:20.322Z,103105.94
2023-01-22T16:51:50.794Z,103112.91
2023-01-22T16:54:24.953Z,103107.72
2023-01-22T16:56:51.874Z,103103.47
2023-01-22T16:59:18.832Z,103108.66
2023-01-22T17:01:46.329Z,103125.75
2023-01-22T17:04:13.867Z,103115.41
2023-01-22T17:06:48.750Z,103117.88
2023-01-22T17:09:32.355Z,103115.28
2023-01-22T17:12:02.744Z,103115.41
2023-01-22T17:14:35.104Z,103117.19
2023-01-22T17:17:03.963Z,103117.19
2023-01-22T17:19:30.886Z,103118.88
2023-01-22T17:21:59.273Z,103125.81
2023-01-22T17:24:27.875Z,103123.88
2023-01-22T17:26:55.453Z,103127.16
2023-01-22T17:29:22.358Z,103129.31
2023-01-22T17:31:49.468Z,103125.75
2023-01-22T17:34:16.764Z,103136.31
2023-01-22T17:36:43.645Z,103145.06
2023-01-22T17:39:16.006Z,103146.13
2023-01-22T17:41:44.318Z,103145.25
2023-01-22T17:44:13.025Z,103147.91
2023-01-22T17:46:40.376Z,103158.16
2023-01-22T17:49:07.449Z,103158.88
2023-01-22T17:51:35.388Z,103137.09
2023-01-22T17:54:04.190Z,103159.16
2023-01-22T17:56:35.148Z,103157.06
2023-01-22T17:59:05.448Z,103161.44
2023-01-22T18:01:34.015Z,103170.38
2023-01-22T18:04:04.867Z,103173.19
2023-01-22T18:06:32.626Z,103175.84
2023-01-22T18:09:00.780Z,103174.19
2023-01-22T18:11:29.516Z,103178.44
2023-01-22T18:14:02.913Z,103180.13
2023-01-22T18:16:34.150Z,103178.25
2023-01-22T18:19:03.471Z,103181.53
2023-01-22T18:21:30.564Z,103183.22
2023-01-22T18:23:59.857Z,103180.63
2023-01-22T18:26:26.855Z,103186.81
2023-01-22T18:28:57.020Z,103182.59
2023-01-22T18:31:26.132Z,103187.69
2023-01-22T18:33:55.843Z,103184.53
2023-01-22T18:36:26.363Z,103195.75
2023-01-22T18:38:53.578Z,103193.06
2023-01-22T18:41:24.552Z,103201.38
2023-01-22T18:44:04.036Z,103197.63
2023-01-22T18:46:34.207Z,103204.28
2023-01-22T18:49:10.044Z,103204.28
2023-01-22T18:51:37.022Z,103206.97
2023-01-22T18:54:05.330Z,103210.38
2023-01-22T18:56:32.478Z,103198.03
2023-01-22T18:58:59.938Z,103213.03
2023-01-22T19:01:31.324Z,103213.16
2023-01-22T19:04:01.483Z,103220.09
2023-01-22T19:06:37.002Z,103223.47
2023-01-22T19:09:08.916Z,103222.38
2023-01-22T19:11:40.587Z,103216.69
2023-01-22T19:14:09.144Z,103227.53
2023-01-22T19:16:37.520Z,103229.22
2023-01-22T19:19:11.146Z,103237.31
2023-01-22T19:21:40.566Z,103231.72
2023-01-22T19:24:08.833Z,103230.34
2023-01-22T19:26:38.170Z,103218.00
2023-01-22T19:29:12.716Z,103228.66
2023-01-22T19:31:47.082Z,103228.47
2023-01-22T19:34:23.179Z,103216.19
2023-01-22T19:36:57.139Z,103226.53
2023-01-22T19:39:25.872Z,103239.66
2023-01-22T19:41:52.972Z,103229.72
2023-01-22T19:44:20.058Z,103234.47
2023-01-22T19:46:46.999Z,103238.75
2023-01-22T19:49:14.026Z,103236.88
2023-01-22T19:51:41.733Z,103232.72
2023-01-22T19:54:10.195Z,103244.44
2023-01-22T19:56:38.962Z,103243.75
2023-01-22T19:59:17.688Z,103243.97
2023-01-22T20:01:46.048Z,103244.94
2023-01-22T20:04:26.744Z,103245.75
2023-01-22T20:07:02.083Z,103252.31
2023-01-22T20:09:30.369Z,103263.13
2023-01-22T20:11:58.578Z,103260.75
2023-01-22T20:14:41.252Z,103266.69
2023-01-22T20:17:08.146Z,103268.69
2023-01-22T20:19:38.094Z,103268.06
2023-01-22T20:22:07.009Z,103267.88
2023-01-22T20:24:34.728Z,103281.91
2023-01-22T20:27:01.676Z,103277.53
2023-01-22T20:29:28.692Z,103282.69
2023-01-22T20:31:56.704Z,103264.91
2023-01-22T20:34:23.653Z,103276.75
2023-01-22T20:36:51.123Z,103275.13
2023-01-22T20:39:19.673Z,103283.50
2023-01-22T20:41:47.265Z,103282.03
2023-01-22T20:44:14.835Z,103289.50
2023-01-22T20:46:44.323Z,103286.41
2023-01-22T20:49:12.293Z,103276.25
2023-01-22T20:51:39.964Z,103282.09
2023-01-22T20:54:07.129Z,103297.38
2023-01-22T20:56:35.509Z,103287.84
2023-01-22T20:59:07.599Z,103276.50
2023-01-22T21:01:35.538Z,103298.19
2023-01-22T21:04:02.807Z,103295.41
2023-01-22T21:06:33.527Z,103294.47
2023-01-22T21:09:01.330Z,103302.34
2023-01-22T21:11:32.956Z,103298.19
2023-01-22T21:14:01.684Z,103305.13
2023-01-22T21:16:37.653Z,103297.28
2023-01-22T21:19:18.680Z,103307.41
2023-01-22T21:21:46.723Z,103311.78
2023-01-22T21:24:13.912Z,103307.50
2023-01-22T21:26:41.154Z,103304.25
2023-01-22T21:29:15.999Z,103305.25
2023-01-22T21:31:44.154Z,103317.97
2023-01-22T21:34:11.850Z,103312.47
2023-01-22T21:36:42.645Z,103314.94
2023-01-22T21:39:14.742Z,103314.16
2023-01-22T21:41:42.180Z,103307.09
2023-01-22T21:44:31.017Z,103311.34
2023-01-22T21:46:58.023Z,103317.44
2023-01-22T21:49:25.082Z,103325.06
2023-01-22T21:52:09.360Z,103328.34
2023-01-22T21:54:39.867Z,103330.94
2023-01-22T21:57:08.442Z,103325.75
2023-01-22T21:59:36.864Z,103318.00
2023-01-22T22:02:05.042Z,103313.03
2023-01-22T22:04:31.979Z,103311.28
2023-01-22T22:06:58.873Z,103313.94
2023-01-22T22:09:27.740Z,103311.16
2023-01-22T22:11:59.447Z,103335.69
2023-01-22T22:14:27.245Z,103330.19
2023-01-22T22:16:54.431Z,103328.31
2023-01-22T22:19:22.504Z,103316.41
2023-01-22T22:21:51.033Z,103319.25
2023-01-22T22:24:19.176Z,103319.50
2023-01-22T22:26:46.059Z,103330.72
2023-01-22T22:29:12.996Z,103327.13
2023-01-22T22:31:40.256Z,103321.97
2023-01-22T22:34:07.373Z,103320.75
2023-01-22T22:36:35.667Z,103328.16
2023-01-22T22:39:03.416Z,103329.22
2023-01-22T22:41:33.716Z,103334.50
2023-01-22T22:44:00.781Z,103332.03
2023-01-22T22:46:31.316Z,103337.09
2023-01-22T22:49:00.892Z,103330.13
2023-01-22T22:51:37.397Z,103323.53
2023-01-22T22:54:10.036Z,103334.00
2023-01-22T22:56:37.012Z,103332.53
2023-01-22T22:59:05.169Z,103340.34
2023-01-22T23:01:33.178Z,103337.69
2023-01-22T23:04:01.151Z,103337.81
2023-01-22T23:06:31.319Z,103344.13
2023-01-22T23:09:13.187Z,103335.84
2023-01-22T23:11:40.391Z,103341.56
2023-01-22T23:14:07.777Z,103338.22
2023-01-22T23:16:41.745Z,103346.97
2023-01-22T23:19:17.246Z,103352.47
2023-01-22T23:21:45.213Z,103344.06
2023-01-22T23:24:14.114Z,103347.53
2023-01-22T23:26:43.241Z,103357.38
2023-01-22T23:29:13.740Z,103355.59
2023-01-22T23:31:41.244Z,103354.78
2023-01-22T23:34:12.781Z,103366.34
2023-01-22T23:36:43.608Z,103376.88
2023-01-22T23:39:12.274Z,103376.09
2023-01-22T23:41:39.198Z,103382.50
2023-01-22T23:44:06.319Z,103382.72
2023-01-22T23:46:34.967Z,103375.75
2023-01-22T23:49:03.099Z,103385.97
2023-01-22T23:51:30.449Z,103386.44
2023-01-22T23:53:57.960Z,103383.38
2023-01-22T23:56:30.143Z,103378.22
2023-01-22T23:58:57.368Z,103380.94
